Butler, PA (16002)

9:00 PM EST on February 13, 2016 (GMT -0500)
Butler Township - South Butler | | Change Station
CLOSE
Current Station
Personal Weather Station
Location: Butler, PA
Elevation: 1253 ft
Nearby Weather Stations
Active Advisory: Wind Chill Advisory Active Notice: Local Storm Report

Elev 1253 ft 40.82 °N, 79.90 °W | Updated 3 minutes ago

Partly Cloudy
Partly Cloudy
3.7 °F
Feels Like 4 °F
N
1.7
Wind Variable Wind from East

Today
High -- | Low -- °F
--% Chance of Precip.
Yesterday
High -- | Low -- °F
Precip. -- in
Pressure 30.42 in
Visibility 4.0 miles
Clouds Few 4100 ft
Windchill 4 °F
Dew Point -1 °F
Humidity 81%
Rainfall 0.00 in
Snow Depth Not available.
7:16 AM 5:51 PM
Waxing Crescent, 36% visible
METAR KBTP 140155Z AUTO 26003KT 4SM FEW041 M14/M18 A3042 RMK AO1
Pressure 30.42 in
Visibility 4.0 miles
Clouds Few 4100 ft
Windchill 4 °F
Dew Point -1 °F
Humidity 81%
Rainfall 0.00 in
Snow Depth Not available.
7:16 AM 5:51 PM
Waxing Crescent, 36% visible
METAR KBTP 140155Z AUTO 26003KT 4SM FEW041 M14/M18 A3042 RMK AO1

10-Day Weather Forecast

Almanac

Astronomy

Feb. 13, 2016 Rise Set
Actual Time
Civil Twilight
Nautical Twilight
Astronomical Twilight
Moon
Length of Visible Light
Length of Day
Tomorrow will be .
, % of the Moon is Illuminated

Today's Extremes

State Highs State Lows

Community

WunderPhotos

Upload Photos

1,892,722 photos uploaded!

WunderBlog® & News

Nearby

Air Quality

  Air Quality AQ Index Pollutant
Not available.

Snow Depth

Station Depth Elevation

Earthquake Activity

City Distance Mag. Time & Date
Minimum magnitude displayed is 2.5.

Coastal Water Temperatures

Place Temperature

Stations

Nearby Weather Stations

Station Location Temp. Windchill Dew Point Humidity Wind Precip. Elev Updated Type
                   

Watches & Warnings

Wind Chill Advisory
Issued: 6:03 PM EST Feb. 13, 2016 – National Weather Service

... Wind Chill Advisory remains in effect until 9 am EST Sunday...

* wind chill... as low as 14 below. Temperature 4 below to 12 above
zero... and west wind 10 to 15 mph.

* Impact... frost bite and hypothermia are likely if precautions
are not taken.

Precautionary/preparedness actions...

A Wind Chill Advisory means that very cold air and strong wind will
combine to generate low wind chill indices. Make sure you dress
appropriately.